sensor_id;sensor_type;location;lat;lon;timestamp;P1;durP1;ratioP1;P2;durP2;ratioP2
6105;SDS011;3083;51.508;7.966;2023-10-13T00:02:09;25.10;;;16.23;;
6105;SDS011;3083;51.508;7.966;2023-10-13T00:04:36;27.60;;;16.57;;
6105;SDS011;3083;51.508;7.966;2023-10-13T00:07:03;23.47;;;16.13;;
6105;SDS011;3083;51.508;7.966;2023-10-13T00:09:35;27.33;;;17.23;;
6105;SDS011;3083;51.508;7.966;2023-10-13T00:12:03;28.60;;;17.23;;
6105;SDS011;3083;51.508;7.966;2023-10-13T00:14:33;26.00;;;16.87;;
6105;SDS011;3083;51.508;7.966;2023-10-13T00:17:00;26.30;;;16.27;;
6105;SDS011;3083;51.508;7.966;2023-10-13T00:19:28;27.37;;;16.13;;
6105;SDS011;3083;51.508;7.966;2023-10-13T00:22:03;23.60;;;14.97;;
6105;SDS011;3083;51.508;7.966;2023-10-13T00:24:36;24.67;;;16.83;;
6105;SDS011;3083;51.508;7.966;2023-10-13T00:27:09;24.53;;;16.13;;
6105;SDS011;3083;51.508;7.966;2023-10-13T00:29:54;26.50;;;15.30;;
6105;SDS011;3083;51.508;7.966;2023-10-13T00:32:41;24.80;;;16.33;;
6105;SDS011;3083;51.508;7.966;2023-10-13T00:35:09;23.20;;;15.73;;
6105;SDS011;3083;51.508;7.966;2023-10-13T00:37:37;31.07;;;16.10;;
6105;SDS011;3083;51.508;7.966;2023-10-13T00:40:10;26.20;;;16.70;;
6105;SDS011;3083;51.508;7.966;2023-10-13T00:43:03;20.87;;;14.93;;
6105;SDS011;3083;51.508;7.966;2023-10-13T00:45:52;25.20;;;15.50;;
6105;SDS011;3083;51.508;7.966;2023-10-13T00:48:22;23.10;;;14.10;;
6105;SDS011;3083;51.508;7.966;2023-10-13T00:50:54;22.40;;;14.47;;
6105;SDS011;3083;51.508;7.966;2023-10-13T00:53:21;23.87;;;14.50;;
6105;SDS011;3083;51.508;7.966;2023-10-13T00:55:51;19.07;;;13.13;;
6105;SDS011;3083;51.508;7.966;2023-10-13T00:58:20;19.60;;;13.60;;
6105;SDS011;3083;51.508;7.966;2023-10-13T01:00:50;21.67;;;14.03;;
6105;SDS011;3083;51.508;7.966;2023-10-13T01:03:22;23.00;;;13.80;;
6105;SDS011;3083;51.508;7.966;2023-10-13T01:05:52;18.80;;;13.07;;
6105;SDS011;3083;51.508;7.966;2023-10-13T01:08:30;20.47;;;14.03;;
6105;SDS011;3083;51.508;7.966;2023-10-13T01:11:01;20.00;;;13.10;;
6105;SDS011;3083;51.508;7.966;2023-10-13T01:13:27;18.80;;;12.67;;
6105;SDS011;3083;51.508;7.966;2023-10-13T01:15:56;19.47;;;12.47;;
6105;SDS011;3083;51.508;7.966;2023-10-13T01:18:22;18.80;;;12.67;;
6105;SDS011;3083;51.508;7.966;2023-10-13T01:20:51;18.70;;;12.27;;
6105;SDS011;3083;51.508;7.966;2023-10-13T01:23:19;21.13;;;12.30;;
6105;SDS011;3083;51.508;7.966;2023-10-13T01:25:49;21.17;;;12.70;;
6105;SDS011;3083;51.508;7.966;2023-10-13T01:28:16;18.97;;;12.73;;
6105;SDS011;3083;51.508;7.966;2023-10-13T01:30:42;21.40;;;12.77;;
6105;SDS011;3083;51.508;7.966;2023-10-13T01:33:15;18.67;;;12.50;;
6105;SDS011;3083;51.508;7.966;2023-10-13T01:35:41;23.20;;;14.00;;
6105;SDS011;3083;51.508;7.966;2023-10-13T01:38:12;19.03;;;12.90;;
6105;SDS011;3083;51.508;7.966;2023-10-13T01:40:40;18.83;;;12.40;;
6105;SDS011;3083;51.508;7.966;2023-10-13T01:43:08;20.00;;;12.90;;
6105;SDS011;3083;51.508;7.966;2023-10-13T01:45:36;20.57;;;13.33;;
6105;SDS011;3083;51.508;7.966;2023-10-13T01:48:14;21.60;;;13.47;;
6105;SDS011;3083;51.508;7.966;2023-10-13T01:50:42;20.07;;;13.27;;
6105;SDS011;3083;51.508;7.966;2023-10-13T01:53:12;18.57;;;12.90;;
6105;SDS011;3083;51.508;7.966;2023-10-13T01:55:41;19.77;;;13.17;;
6105;SDS011;3083;51.508;7.966;2023-10-13T01:58:09;20.77;;;13.00;;
6105;SDS011;3083;51.508;7.966;2023-10-13T02:00:40;19.00;;;12.23;;
6105;SDS011;3083;51.508;7.966;2023-10-13T02:03:08;19.97;;;12.70;;
6105;SDS011;3083;51.508;7.966;2023-10-13T02:05:40;19.40;;;12.20;;
6105;SDS011;3083;51.508;7.966;2023-10-13T02:08:12;19.87;;;13.47;;
6105;SDS011;3083;51.508;7.966;2023-10-13T02:10:44;16.60;;;12.23;;
6105;SDS011;3083;51.508;7.966;2023-10-13T02:13:12;25.07;;;12.70;;
6105;SDS011;3083;51.508;7.966;2023-10-13T02:15:41;21.33;;;13.30;;
6105;SDS011;3083;51.508;7.966;2023-10-13T02:18:09;20.20;;;11.77;;
6105;SDS011;3083;51.508;7.966;2023-10-13T02:20:36;16.47;;;11.20;;
6105;SDS011;3083;51.508;7.966;2023-10-13T02:23:09;18.20;;;12.43;;
6105;SDS011;3083;51.508;7.966;2023-10-13T02:25:35;20.20;;;11.93;;
6105;SDS011;3083;51.508;7.966;2023-10-13T02:28:10;17.37;;;11.80;;
6105;SDS011;3083;51.508;7.966;2023-10-13T02:30:39;21.00;;;11.80;;
6105;SDS011;3083;51.508;7.966;2023-10-13T02:33:09;18.97;;;12.47;;
6105;SDS011;3083;51.508;7.966;2023-10-13T02:35:37;20.67;;;12.27;;
6105;SDS011;3083;51.508;7.966;2023-10-13T02:38:08;19.10;;;12.67;;
6105;SDS011;3083;51.508;7.966;2023-10-13T02:40:38;20.43;;;12.07;;
6105;SDS011;3083;51.508;7.966;2023-10-13T02:43:05;19.03;;;11.30;;
6105;SDS011;3083;51.508;7.966;2023-10-13T02:45:32;16.50;;;11.10;;
6105;SDS011;3083;51.508;7.966;2023-10-13T02:48:02;16.30;;;12.30;;
6105;SDS011;3083;51.508;7.966;2023-10-13T02:50:35;17.37;;;11.00;;
6105;SDS011;3083;51.508;7.966;2023-10-13T02:53:08;14.70;;;10.60;;
6105;SDS011;3083;51.508;7.966;2023-10-13T02:55:37;16.57;;;10.03;;
6105;SDS011;3083;51.508;7.966;2023-10-13T02:58:05;14.67;;;9.80;;
6105;SDS011;3083;51.508;7.966;2023-10-13T03:00:35;18.17;;;10.87;;
6105;SDS011;3083;51.508;7.966;2023-10-13T03:03:05;16.23;;;9.70;;
6105;SDS011;3083;51.508;7.966;2023-10-13T03:05:34;15.20;;;8.73;;
6105;SDS011;3083;51.508;7.966;2023-10-13T03:08:04;14.60;;;8.60;;
6105;SDS011;3083;51.508;7.966;2023-10-13T03:10:31;13.10;;;7.80;;
6105;SDS011;3083;51.508;7.966;2023-10-13T03:12:58;15.60;;;8.17;;
6105;SDS011;3083;51.508;7.966;2023-10-13T03:15:24;12.30;;;8.50;;
6105;SDS011;3083;51.508;7.966;2023-10-13T03:17:56;13.10;;;8.63;;
6105;SDS011;3083;51.508;7.966;2023-10-13T03:20:24;13.93;;;7.07;;
6105;SDS011;3083;51.508;7.966;2023-10-13T03:22:56;14.70;;;8.37;;
6105;SDS011;3083;51.508;7.966;2023-10-13T03:25:22;11.60;;;7.57;;
6105;SDS011;3083;51.508;7.966;2023-10-13T03:27:54;13.20;;;10.07;;
6105;SDS011;3083;51.508;7.966;2023-10-13T03:30:26;11.83;;;7.47;;
6105;SDS011;3083;51.508;7.966;2023-10-13T03:33:02;11.13;;;7.50;;
6105;SDS011;3083;51.508;7.966;2023-10-13T03:35:33;9.70;;;7.00;;
6105;SDS011;3083;51.508;7.966;2023-10-13T03:38:07;14.23;;;7.73;;
6105;SDS011;3083;51.508;7.966;2023-10-13T03:40:43;13.07;;;7.93;;
6105;SDS011;3083;51.508;7.966;2023-10-13T03:43:32;12.33;;;6.90;;
6105;SDS011;3083;51.508;7.966;2023-10-13T03:46:10;13.17;;;7.37;;
6105;SDS011;3083;51.508;7.966;2023-10-13T03:48:38;11.73;;;7.70;;
6105;SDS011;3083;51.508;7.966;2023-10-13T03:51:17;10.57;;;7.67;;
6105;SDS011;3083;51.508;7.966;2023-10-13T03:53:44;13.07;;;7.77;;
6105;SDS011;3083;51.508;7.966;2023-10-13T03:56:17;13.37;;;7.60;;
6105;SDS011;3083;51.508;7.966;2023-10-13T03:58:51;10.50;;;7.10;;
6105;SDS011;3083;51.508;7.966;2023-10-13T04:01:19;17.83;;;7.57;;
6105;SDS011;3083;51.508;7.966;2023-10-13T04:03:57;13.80;;;7.77;;
6105;SDS011;3083;51.508;7.966;2023-10-13T04:06:29;12.47;;;7.47;;
6105;SDS011;3083;51.508;7.966;2023-10-13T04:09:23;11.67;;;8.37;;
6105;SDS011;3083;51.508;7.966;2023-10-13T04:12:08;14.17;;;8.80;;
6105;SDS011;3083;51.508;7.966;2023-10-13T04:15:06;12.77;;;8.73;;
6105;SDS011;3083;51.508;7.966;2023-10-13T04:17:52;16.70;;;8.53;;
6105;SDS011;3083;51.508;7.966;2023-10-13T04:20:19;14.13;;;8.80;;
6105;SDS011;3083;51.508;7.966;2023-10-13T04:22:58;15.93;;;8.47;;
6105;SDS011;3083;51.508;7.966;2023-10-13T04:25:52;13.10;;;8.67;;
6105;SDS011;3083;51.508;7.966;2023-10-13T04:28:34;14.83;;;9.33;;
6105;SDS011;3083;51.508;7.966;2023-10-13T04:31:03;21.77;;;10.50;;
6105;SDS011;3083;51.508;7.966;2023-10-13T04:33:37;21.60;;;10.40;;
6105;SDS011;3083;51.508;7.966;2023-10-13T04:36:16;18.27;;;11.40;;
6105;SDS011;3083;51.508;7.966;2023-10-13T04:38:48;18.97;;;11.30;;
6105;SDS011;3083;51.508;7.966;2023-10-13T04:41:23;15.97;;;10.83;;
6105;SDS011;3083;51.508;7.966;2023-10-13T04:43:50;19.67;;;10.50;;
6105;SDS011;3083;51.508;7.966;2023-10-13T04:46:29;20.57;;;11.10;;
6105;SDS011;3083;51.508;7.966;2023-10-13T04:49:19;18.70;;;11.50;;
6105;SDS011;3083;51.508;7.966;2023-10-13T04:51:53;20.60;;;10.67;;
6105;SDS011;3083;51.508;7.966;2023-10-13T04:54:37;16.70;;;10.63;;
6105;SDS011;3083;51.508;7.966;2023-10-13T04:57:16;14.77;;;9.40;;
6105;SDS011;3083;51.508;7.966;2023-10-13T04:59:49;20.90;;;11.13;;
6105;SDS011;3083;51.508;7.966;2023-10-13T05:02:34;17.47;;;10.50;;
6105;SDS011;3083;51.508;7.966;2023-10-13T05:05:42;19.40;;;10.80;;
6105;SDS011;3083;51.508;7.966;2023-10-13T05:08:35;18.73;;;10.13;;
6105;SDS011;3083;51.508;7.966;2023-10-13T05:11:19;16.23;;;10.40;;
6105;SDS011;3083;51.508;7.966;2023-10-13T05:14:05;16.63;;;10.80;;
6105;SDS011;3083;51.508;7.966;2023-10-13T05:16:49;17.53;;;9.70;;
6105;SDS011;3083;51.508;7.966;2023-10-13T05:19:34;15.37;;;9.37;;
6105;SDS011;3083;51.508;7.966;2023-10-13T05:22:18;17.10;;;10.07;;
6105;SDS011;3083;51.508;7.966;2023-10-13T05:25:02;15.77;;;9.00;;
6105;SDS011;3083;51.508;7.966;2023-10-13T05:27:47;13.87;;;8.90;;
6105;SDS011;3083;51.508;7.966;2023-10-13T05:30:33;14.27;;;9.60;;
6105;SDS011;3083;51.508;7.966;2023-10-13T05:33:17;18.00;;;9.43;;
6105;SDS011;3083;51.508;7.966;2023-10-13T05:36:01;17.93;;;9.60;;
6105;SDS011;3083;51.508;7.966;2023-10-13T05:38:46;15.77;;;8.67;;
6105;SDS011;3083;51.508;7.966;2023-10-13T05:41:30;13.13;;;8.60;;
6105;SDS011;3083;51.508;7.966;2023-10-13T05:44:14;13.20;;;8.90;;
6105;SDS011;3083;51.508;7.966;2023-10-13T05:47:03;12.27;;;7.57;;
6105;SDS011;3083;51.508;7.966;2023-10-13T05:50:08;12.10;;;7.90;;
6105;SDS011;3083;51.508;7.966;2023-10-13T05:52:54;14.73;;;8.57;;
6105;SDS011;3083;51.508;7.966;2023-10-13T05:55:38;14.43;;;7.80;;
6105;SDS011;3083;51.508;7.966;2023-10-13T05:58:22;15.60;;;7.80;;
6105;SDS011;3083;51.508;7.966;2023-10-13T06:01:11;15.50;;;8.40;;
6105;SDS011;3083;51.508;7.966;2023-10-13T06:03:57;13.10;;;8.00;;
6105;SDS011;3083;51.508;7.966;2023-10-13T06:06:41;15.20;;;8.20;;
6105;SDS011;3083;51.508;7.966;2023-10-13T06:09:25;13.00;;;7.67;;
6105;SDS011;3083;51.508;7.966;2023-10-13T06:12:09;13.50;;;8.37;;
6105;SDS011;3083;51.508;7.966;2023-10-13T06:14:54;11.60;;;7.60;;
6105;SDS011;3083;51.508;7.966;2023-10-13T06:17:38;12.03;;;7.17;;
6105;SDS011;3083;51.508;7.966;2023-10-13T06:20:23;13.30;;;7.47;;
6105;SDS011;3083;51.508;7.966;2023-10-13T06:23:08;11.20;;;7.70;;
6105;SDS011;3083;51.508;7.966;2023-10-13T06:25:53;10.93;;;6.87;;
6105;SDS011;3083;51.508;7.966;2023-10-13T06:28:37;13.80;;;6.90;;
6105;SDS011;3083;51.508;7.966;2023-10-13T06:31:08;11.30;;;6.77;;
6105;SDS011;3083;51.508;7.966;2023-10-13T06:33:46;11.87;;;7.87;;
6105;SDS011;3083;51.508;7.966;2023-10-13T06:36:14;10.03;;;6.57;;
6105;SDS011;3083;51.508;7.966;2023-10-13T06:38:42;9.40;;;6.27;;
6105;SDS011;3083;51.508;7.966;2023-10-13T06:41:17;11.43;;;6.77;;
6105;SDS011;3083;51.508;7.966;2023-10-13T06:43:55;12.17;;;6.60;;
6105;SDS011;3083;51.508;7.966;2023-10-13T06:46:28;11.20;;;6.00;;
6105;SDS011;3083;51.508;7.966;2023-10-13T06:48:58;12.30;;;6.80;;
6105;SDS011;3083;51.508;7.966;2023-10-13T06:51:29;10.47;;;6.40;;
6105;SDS011;3083;51.508;7.966;2023-10-13T06:54:02;13.10;;;7.17;;
6105;SDS011;3083;51.508;7.966;2023-10-13T06:56:35;9.93;;;6.40;;
6105;SDS011;3083;51.508;7.966;2023-10-13T06:59:04;15.67;;;6.93;;
6105;SDS011;3083;51.508;7.966;2023-10-13T07:01:31;11.77;;;5.73;;
6105;SDS011;3083;51.508;7.966;2023-10-13T07:04:03;11.10;;;5.67;;
6105;SDS011;3083;51.508;7.966;2023-10-13T07:06:39;9.53;;;5.67;;
6105;SDS011;3083;51.508;7.966;2023-10-13T07:09:13;13.23;;;5.57;;
6105;SDS011;3083;51.508;7.966;2023-10-13T07:12:01;11.30;;;5.57;;
6105;SDS011;3083;51.508;7.966;2023-10-13T07:14:33;7.23;;;4.70;;
6105;SDS011;3083;51.508;7.966;2023-10-13T07:17:00;9.90;;;5.33;;
6105;SDS011;3083;51.508;7.966;2023-10-13T07:19:30;6.33;;;4.60;;
6105;SDS011;3083;51.508;7.966;2023-10-13T07:22:00;10.70;;;5.30;;
6105;SDS011;3083;51.508;7.966;2023-10-13T07:24:44;10.50;;;5.60;;
6105;SDS011;3083;51.508;7.966;2023-10-13T07:27:13;9.10;;;5.07;;
6105;SDS011;3083;51.508;7.966;2023-10-13T07:29:47;8.90;;;4.90;;
6105;SDS011;3083;51.508;7.966;2023-10-13T07:32:21;10.07;;;6.10;;
6105;SDS011;3083;51.508;7.966;2023-10-13T07:34:51;12.03;;;5.90;;
6105;SDS011;3083;51.508;7.966;2023-10-13T07:37:21;12.07;;;7.00;;
6105;SDS011;3083;51.508;7.966;2023-10-13T07:39:53;11.47;;;6.90;;
6105;SDS011;3083;51.508;7.966;2023-10-13T07:42:23;12.23;;;7.47;;
6105;SDS011;3083;51.508;7.966;2023-10-13T07:44:55;10.57;;;7.30;;
6105;SDS011;3083;51.508;7.966;2023-10-13T07:47:24;12.73;;;7.43;;
6105;SDS011;3083;51.508;7.966;2023-10-13T07:49:53;9.70;;;6.80;;
6105;SDS011;3083;51.508;7.966;2023-10-13T07:52:23;11.07;;;6.60;;
6105;SDS011;3083;51.508;7.966;2023-10-13T07:55:01;11.90;;;6.73;;
6105;SDS011;3083;51.508;7.966;2023-10-13T07:57:36;8.77;;;6.30;;
6105;SDS011;3083;51.508;7.966;2023-10-13T08:00:18;12.60;;;6.93;;
6105;SDS011;3083;51.508;7.966;2023-10-13T08:02:57;11.70;;;6.70;;
6105;SDS011;3083;51.508;7.966;2023-10-13T08:05:44;17.13;;;7.67;;
6105;SDS011;3083;51.508;7.966;2023-10-13T08:08:25;11.90;;;7.23;;
6105;SDS011;3083;51.508;7.966;2023-10-13T08:11:00;13.93;;;6.90;;
6105;SDS011;3083;51.508;7.966;2023-10-13T08:13:33;9.70;;;7.23;;
6105;SDS011;3083;51.508;7.966;2023-10-13T08:16:02;19.27;;;7.00;;
6105;SDS011;3083;51.508;7.966;2023-10-13T08:18:32;17.33;;;6.70;;
6105;SDS011;3083;51.508;7.966;2023-10-13T08:21:01;16.60;;;7.10;;
6105;SDS011;3083;51.508;7.966;2023-10-13T08:23:30;11.90;;;6.80;;
6105;SDS011;3083;51.508;7.966;2023-10-13T08:26:20;16.50;;;7.23;;
6105;SDS011;3083;51.508;7.966;2023-10-13T08:29:05;15.47;;;7.00;;
6105;SDS011;3083;51.508;7.966;2023-10-13T08:31:46;14.33;;;7.40;;
6105;SDS011;3083;51.508;7.966;2023-10-13T08:34:15;14.13;;;8.07;;
6105;SDS011;3083;51.508;7.966;2023-10-13T08:36:48;11.17;;;6.57;;
6105;SDS011;3083;51.508;7.966;2023-10-13T08:39:22;16.40;;;6.97;;
6105;SDS011;3083;51.508;7.966;2023-10-13T08:42:03;15.10;;;7.90;;
6105;SDS011;3083;51.508;7.966;2023-10-13T08:44:36;14.50;;;6.60;;
6105;SDS011;3083;51.508;7.966;2023-10-13T08:47:05;13.33;;;7.13;;
6105;SDS011;3083;51.508;7.966;2023-10-13T08:49:42;18.03;;;8.13;;
6105;SDS011;3083;51.508;7.966;2023-10-13T08:52:15;15.87;;;6.83;;
6105;SDS011;3083;51.508;7.966;2023-10-13T08:55:05;15.53;;;6.50;;
6105;SDS011;3083;51.508;7.966;2023-10-13T08:58:00;17.77;;;6.57;;
6105;SDS011;3083;51.508;7.966;2023-10-13T09:00:37;13.43;;;6.03;;
6105;SDS011;3083;51.508;7.966;2023-10-13T09:03:37;13.13;;;6.03;;
6105;SDS011;3083;51.508;7.966;2023-10-13T09:06:08;12.60;;;5.77;;
6105;SDS011;3083;51.508;7.966;2023-10-13T09:08:44;15.07;;;6.00;;
6105;SDS011;3083;51.508;7.966;2023-10-13T09:11:32;15.00;;;5.17;;
6105;SDS011;3083;51.508;7.966;2023-10-13T09:14:14;16.07;;;6.77;;
6105;SDS011;3083;51.508;7.966;2023-10-13T09:17:00;10.07;;;5.90;;
6105;SDS011;3083;51.508;7.966;2023-10-13T09:19:43;11.90;;;6.43;;
6105;SDS011;3083;51.508;7.966;2023-10-13T09:22:20;11.93;;;6.23;;
6105;SDS011;3083;51.508;7.966;2023-10-13T09:24:53;13.37;;;6.13;;
6105;SDS011;3083;51.508;7.966;2023-10-13T09:27:23;13.80;;;6.53;;
6105;SDS011;3083;51.508;7.966;2023-10-13T09:29:55;18.50;;;6.47;;
6105;SDS011;3083;51.508;7.966;2023-10-13T09:32:22;12.20;;;6.07;;
6105;SDS011;3083;51.508;7.966;2023-10-13T09:34:49;15.50;;;6.53;;
6105;SDS011;3083;51.508;7.966;2023-10-13T09:37:16;12.93;;;5.93;;
6105;SDS011;3083;51.508;7.966;2023-10-13T09:39:46;13.93;;;6.20;;
6105;SDS011;3083;51.508;7.966;2023-10-13T09:42:17;8.77;;;5.73;;
6105;SDS011;3083;51.508;7.966;2023-10-13T09:44:45;14.50;;;5.90;;
6105;SDS011;3083;51.508;7.966;2023-10-13T09:47:22;17.20;;;6.97;;
6105;SDS011;3083;51.508;7.966;2023-10-13T09:49:57;14.87;;;6.13;;
6105;SDS011;3083;51.508;7.966;2023-10-13T09:52:30;16.90;;;6.00;;
6105;SDS011;3083;51.508;7.966;2023-10-13T09:55:02;19.50;;;6.87;;
6105;SDS011;3083;51.508;7.966;2023-10-13T09:57:39;11.30;;;5.03;;
6105;SDS011;3083;51.508;7.966;2023-10-13T10:00:13;17.00;;;5.97;;
6105;SDS011;3083;51.508;7.966;2023-10-13T10:03:00;13.23;;;5.80;;
6105;SDS011;3083;51.508;7.966;2023-10-13T10:05:39;16.10;;;6.03;;
6105;SDS011;3083;51.508;7.966;2023-10-13T10:08:06;15.57;;;5.23;;
6105;SDS011;3083;51.508;7.966;2023-10-13T10:10:42;16.10;;;6.17;;
6105;SDS011;3083;51.508;7.966;2023-10-13T10:13:19;14.40;;;5.67;;
6105;SDS011;3083;51.508;7.966;2023-10-13T10:15:56;18.20;;;6.43;;
6105;SDS011;3083;51.508;7.966;2023-10-13T10:18:29;12.80;;;6.13;;
6105;SDS011;3083;51.508;7.966;2023-10-13T10:21:03;18.63;;;6.83;;
6105;SDS011;3083;51.508;7.966;2023-10-13T10:23:32;15.73;;;6.57;;
6105;SDS011;3083;51.508;7.966;2023-10-13T10:26:10;15.27;;;5.93;;
6105;SDS011;3083;51.508;7.966;2023-10-13T10:28:41;16.33;;;5.97;;
6105;SDS011;3083;51.508;7.966;2023-10-13T10:31:10;12.30;;;6.00;;
6105;SDS011;3083;51.508;7.966;2023-10-13T10:33:40;12.23;;;6.40;;
6105;SDS011;3083;51.508;7.966;2023-10-13T10:36:08;11.63;;;5.47;;
6105;SDS011;3083;51.508;7.966;2023-10-13T10:38:50;12.30;;;5.93;;
6105;SDS011;3083;51.508;7.966;2023-10-13T10:41:25;15.87;;;7.17;;
6105;SDS011;3083;51.508;7.966;2023-10-13T10:44:09;16.87;;;6.40;;
6105;SDS011;3083;51.508;7.966;2023-10-13T10:46:41;22.90;;;7.13;;
6105;SDS011;3083;51.508;7.966;2023-10-13T10:49:17;11.23;;;6.50;;
6105;SDS011;3083;51.508;7.966;2023-10-13T10:51:52;14.30;;;6.63;;
6105;SDS011;3083;51.508;7.966;2023-10-13T10:54:26;13.00;;;6.83;;
6105;SDS011;3083;51.508;7.966;2023-10-13T10:56:56;15.80;;;6.90;;
6105;SDS011;3083;51.508;7.966;2023-10-13T10:59:35;13.27;;;6.80;;
6105;SDS011;3083;51.508;7.966;2023-10-13T11:02:05;15.90;;;6.43;;
6105;SDS011;3083;51.508;7.966;2023-10-13T11:04:34;14.67;;;6.40;;
6105;SDS011;3083;51.508;7.966;2023-10-13T11:07:06;10.50;;;6.40;;
6105;SDS011;3083;51.508;7.966;2023-10-13T11:09:34;14.70;;;6.23;;
6105;SDS011;3083;51.508;7.966;2023-10-13T11:12:11;15.40;;;6.50;;
6105;SDS011;3083;51.508;7.966;2023-10-13T11:14:58;12.90;;;7.00;;
6105;SDS011;3083;51.508;7.966;2023-10-13T11:17:28;10.37;;;6.57;;
6105;SDS011;3083;51.508;7.966;2023-10-13T11:20:17;17.13;;;7.27;;
6105;SDS011;3083;51.508;7.966;2023-10-13T11:22:50;15.10;;;7.40;;
6105;SDS011;3083;51.508;7.966;2023-10-13T11:25:21;14.13;;;6.47;;
6105;SDS011;3083;51.508;7.966;2023-10-13T11:27:54;16.07;;;7.20;;
6105;SDS011;3083;51.508;7.966;2023-10-13T11:30:23;14.10;;;6.97;;
6105;SDS011;3083;51.508;7.966;2023-10-13T11:33:00;14.73;;;6.50;;
6105;SDS011;3083;51.508;7.966;2023-10-13T11:35:30;12.50;;;6.60;;
6105;SDS011;3083;51.508;7.966;2023-10-13T11:38:11;10.53;;;6.00;;
6105;SDS011;3083;51.508;7.966;2023-10-13T11:40:39;17.40;;;7.00;;
6105;SDS011;3083;51.508;7.966;2023-10-13T11:43:09;16.17;;;6.40;;
6105;SDS011;3083;51.508;7.966;2023-10-13T11:45:39;18.93;;;7.23;;
6105;SDS011;3083;51.508;7.966;2023-10-13T11:48:20;14.30;;;6.70;;
6105;SDS011;3083;51.508;7.966;2023-10-13T11:50:59;13.40;;;6.47;;
6105;SDS011;3083;51.508;7.966;2023-10-13T11:53:32;16.67;;;6.20;;
6105;SDS011;3083;51.508;7.966;2023-10-13T11:56:00;16.43;;;6.63;;
6105;SDS011;3083;51.508;7.966;2023-10-13T11:58:27;16.60;;;6.27;;
6105;SDS011;3083;51.508;7.966;2023-10-13T12:00:54;14.57;;;6.20;;
6105;SDS011;3083;51.508;7.966;2023-10-13T12:03:46;12.70;;;6.27;;
6105;SDS011;3083;51.508;7.966;2023-10-13T12:06:32;11.73;;;6.20;;
6105;SDS011;3083;51.508;7.966;2023-10-13T12:09:12;15.87;;;6.20;;
6105;SDS011;3083;51.508;7.966;2023-10-13T12:11:57;15.43;;;7.20;;
6105;SDS011;3083;51.508;7.966;2023-10-13T12:14:26;19.23;;;6.40;;
6105;SDS011;3083;51.508;7.966;2023-10-13T12:16:55;15.90;;;6.60;;
6105;SDS011;3083;51.508;7.966;2023-10-13T12:19:30;17.13;;;6.60;;
6105;SDS011;3083;51.508;7.966;2023-10-13T12:21:57;13.10;;;7.13;;
6105;SDS011;3083;51.508;7.966;2023-10-13T12:24:29;18.27;;;7.13;;
6105;SDS011;3083;51.508;7.966;2023-10-13T12:27:05;13.60;;;6.80;;
6105;SDS011;3083;51.508;7.966;2023-10-13T12:29:43;11.20;;;6.80;;
6105;SDS011;3083;51.508;7.966;2023-10-13T12:32:11;14.40;;;7.20;;
6105;SDS011;3083;51.508;7.966;2023-10-13T12:34:40;16.73;;;6.27;;
6105;SDS011;3083;51.508;7.966;2023-10-13T12:37:25;12.50;;;6.60;;
6105;SDS011;3083;51.508;7.966;2023-10-13T12:40:17;19.23;;;6.73;;
6105;SDS011;3083;51.508;7.966;2023-10-13T12:43:02;16.67;;;6.70;;
6105;SDS011;3083;51.508;7.966;2023-10-13T12:45:48;14.10;;;7.47;;
6105;SDS011;3083;51.508;7.966;2023-10-13T12:48:34;14.50;;;7.10;;
6105;SDS011;3083;51.508;7.966;2023-10-13T12:51:21;16.17;;;6.60;;
6105;SDS011;3083;51.508;7.966;2023-10-13T12:54:05;11.67;;;6.60;;
6105;SDS011;3083;51.508;7.966;2023-10-13T12:56:39;14.20;;;7.60;;
6105;SDS011;3083;51.508;7.966;2023-10-13T12:59:07;15.50;;;6.53;;
6105;SDS011;3083;51.508;7.966;2023-10-13T13:01:34;13.50;;;6.40;;
6105;SDS011;3083;51.508;7.966;2023-10-13T13:04:07;13.37;;;5.60;;
6105;SDS011;3083;51.508;7.966;2023-10-13T13:06:38;15.63;;;6.70;;
6105;SDS011;3083;51.508;7.966;2023-10-13T13:09:06;15.50;;;7.00;;
6105;SDS011;3083;51.508;7.966;2023-10-13T13:11:35;12.77;;;6.17;;
6105;SDS011;3083;51.508;7.966;2023-10-13T13:14:05;16.33;;;6.93;;
6105;SDS011;3083;51.508;7.966;2023-10-13T13:16:34;12.60;;;6.80;;
6105;SDS011;3083;51.508;7.966;2023-10-13T13:19:03;16.00;;;7.83;;
6105;SDS011;3083;51.508;7.966;2023-10-13T13:21:35;12.53;;;7.30;;
6105;SDS011;3083;51.508;7.966;2023-10-13T13:24:04;14.30;;;6.60;;
6105;SDS011;3083;51.508;7.966;2023-10-13T13:26:36;14.93;;;6.43;;
6105;SDS011;3083;51.508;7.966;2023-10-13T13:29:06;13.23;;;6.97;;
6105;SDS011;3083;51.508;7.966;2023-10-13T13:31:35;12.30;;;6.50;;
6105;SDS011;3083;51.508;7.966;2023-10-13T13:34:06;17.87;;;6.87;;
6105;SDS011;3083;51.508;7.966;2023-10-13T13:36:35;14.70;;;6.33;;
6105;SDS011;3083;51.508;7.966;2023-10-13T13:39:03;15.90;;;6.60;;
6105;SDS011;3083;51.508;7.966;2023-10-13T13:41:31;12.57;;;6.70;;
6105;SDS011;3083;51.508;7.966;2023-10-13T13:43:58;18.93;;;6.87;;
6105;SDS011;3083;51.508;7.966;2023-10-13T13:46:38;16.00;;;7.10;;
6105;SDS011;3083;51.508;7.966;2023-10-13T13:49:07;17.53;;;7.13;;
6105;SDS011;3083;51.508;7.966;2023-10-13T13:51:43;18.03;;;7.23;;
6105;SDS011;3083;51.508;7.966;2023-10-13T13:54:18;17.90;;;7.00;;
6105;SDS011;3083;51.508;7.966;2023-10-13T13:56:45;11.83;;;6.60;;
6105;SDS011;3083;51.508;7.966;2023-10-13T13:59:13;17.43;;;5.43;;
6105;SDS011;3083;51.508;7.966;2023-10-13T14:01:45;16.50;;;7.60;;
6105;SDS011;3083;51.508;7.966;2023-10-13T14:04:12;19.73;;;7.00;;
6105;SDS011;3083;51.508;7.966;2023-10-13T14:06:42;14.60;;;6.90;;
6105;SDS011;3083;51.508;7.966;2023-10-13T14:09:11;16.10;;;7.13;;
6105;SDS011;3083;51.508;7.966;2023-10-13T14:11:43;15.60;;;6.60;;
6105;SDS011;3083;51.508;7.966;2023-10-13T14:14:27;21.67;;;7.27;;
6105;SDS011;3083;51.508;7.966;2023-10-13T14:16:58;12.57;;;7.33;;
6105;SDS011;3083;51.508;7.966;2023-10-13T14:19:32;20.00;;;7.97;;
6105;SDS011;3083;51.508;7.966;2023-10-13T14:21:59;14.30;;;5.97;;
6105;SDS011;3083;51.508;7.966;2023-10-13T14:24:31;20.67;;;8.13;;
6105;SDS011;3083;51.508;7.966;2023-10-13T14:27:01;17.23;;;7.40;;
6105;SDS011;3083;51.508;7.966;2023-10-13T14:29:34;15.30;;;6.93;;
6105;SDS011;3083;51.508;7.966;2023-10-13T14:32:05;16.20;;;7.00;;
6105;SDS011;3083;51.508;7.966;2023-10-13T14:34:37;15.13;;;6.87;;
6105;SDS011;3083;51.508;7.966;2023-10-13T14:37:04;18.30;;;7.03;;
6105;SDS011;3083;51.508;7.966;2023-10-13T14:39:31;22.57;;;7.40;;
6105;SDS011;3083;51.508;7.966;2023-10-13T14:42:01;23.97;;;7.20;;
6105;SDS011;3083;51.508;7.966;2023-10-13T14:44:30;18.57;;;6.20;;
6105;SDS011;3083;51.508;7.966;2023-10-13T14:46:58;18.17;;;6.90;;
6105;SDS011;3083;51.508;7.966;2023-10-13T14:49:24;13.83;;;7.03;;
6105;SDS011;3083;51.508;7.966;2023-10-13T14:51:51;17.93;;;6.47;;
6105;SDS011;3083;51.508;7.966;2023-10-13T14:54:20;14.67;;;6.60;;
6105;SDS011;3083;51.508;7.966;2023-10-13T14:56:57;14.03;;;6.63;;
6105;SDS011;3083;51.508;7.966;2023-10-13T14:59:27;18.40;;;6.60;;
6105;SDS011;3083;51.508;7.966;2023-10-13T15:01:58;16.10;;;6.67;;
6105;SDS011;3083;51.508;7.966;2023-10-13T15:04:27;16.30;;;6.10;;
6105;SDS011;3083;51.508;7.966;2023-10-13T15:06:57;17.00;;;6.30;;
6105;SDS011;3083;51.508;7.966;2023-10-13T15:09:26;17.00;;;6.73;;
6105;SDS011;3083;51.508;7.966;2023-10-13T15:11:53;14.57;;;6.17;;
6105;SDS011;3083;51.508;7.966;2023-10-13T15:14:22;21.60;;;7.77;;
6105;SDS011;3083;51.508;7.966;2023-10-13T15:16:49;14.23;;;7.17;;
6105;SDS011;3083;51.508;7.966;2023-10-13T15:19:17;11.23;;;6.03;;
6105;SDS011;3083;51.508;7.966;2023-10-13T15:21:44;15.00;;;6.10;;
6105;SDS011;3083;51.508;7.966;2023-10-13T15:24:15;15.13;;;6.00;;
6105;SDS011;3083;51.508;7.966;2023-10-13T15:26:42;16.80;;;6.33;;
6105;SDS011;3083;51.508;7.966;2023-10-13T15:29:13;14.70;;;6.90;;
6105;SDS011;3083;51.508;7.966;2023-10-13T15:31:43;17.97;;;6.80;;
6105;SDS011;3083;51.508;7.966;2023-10-13T15:34:29;15.27;;;6.67;;
6105;SDS011;3083;51.508;7.966;2023-10-13T15:36:57;15.20;;;6.30;;
6105;SDS011;3083;51.508;7.966;2023-10-13T15:39:25;16.00;;;6.50;;
6105;SDS011;3083;51.508;7.966;2023-10-13T15:41:53;12.40;;;5.90;;